Time;durP1;ratioP1;P1;durP2;ratioP2;P2;SDS_P1;SDS_P2;PMS_P1;PMS_P2;Temp;Humidity;BMP_temperature;BMP_pressure;BME280_temperature;BME280_humidity;BME280_pressure;Samples;Min_cycle;Max_cycle;Signal;HPM_P1;HPM_P2
2023/02/08 00:00:50;;;;;;;40.67;15.45;;;;;;;-2.90;59.01;102072.34;5218011;27;20093;-91
2023/02/08 00:03:16;;;;;;;39.35;13.98;;;;;;;-2.85;59.00;102085.38;5217413;27;20054;-89
2023/02/08 00:05:41;;;;;;;41.28;15.85;;;;;;;-2.92;59.00;102084.13;5218364;27;20093;-90
2023/02/08 00:08:06;;;;;;;35.50;14.00;;;;;;;-2.94;59.00;102089.94;5217873;27;20066;-90
2023/02/08 00:10:32;;;;;;;41.30;14.93;;;;;;;-2.97;59.00;102095.72;5183662;27;20212;-86
2023/02/08 00:12:58;;;;;;;41.75;17.20;;;;;;;-2.86;59.01;102092.13;5229996;27;20068;-89
2023/02/08 00:15:23;;;;;;;40.10;16.33;;;;;;;-2.71;59.01;102093.84;5217850;27;20061;-89
2023/02/08 00:17:49;;;;;;;32.45;14.38;;;;;;;-2.56;59.02;102095.63;5199633;27;20102;-90
2023/02/08 00:20:15;;;;;;;41.53;15.15;;;;;;;-2.62;59.01;102104.56;5200468;27;20127;-90
2023/02/08 00:22:40;;;;;;;44.03;16.58;;;;;;;-2.56;59.02;102102.41;5200112;27;20085;-90
2023/02/08 00:25:07;;;;;;;44.95;16.30;;;;;;;-2.58;59.02;102097.22;5199959;27;20068;-90
2023/02/08 00:27:33;;;;;;;41.72;16.37;;;;;;;-2.45;59.03;102093.69;5217958;27;20051;-90
2023/02/08 00:29:58;;;;;;;39.08;16.33;;;;;;;-2.25;59.05;102097.38;5200459;27;20054;-89
2023/02/08 00:32:24;;;;;;;33.72;13.82;;;;;;;-2.29;59.04;102096.34;5200741;27;20068;-89
2023/02/08 00:34:49;;;;;;;39.15;16.15;;;;;;;-2.21;59.04;102102.75;5202073;27;20419;-89
2023/02/08 00:37:15;;;;;;;32.50;14.60;;;;;;;-2.13;59.04;102092.97;5199588;27;20106;-89
2023/02/08 00:39:40;;;;;;;37.97;14.57;;;;;;;-2.04;59.05;102098.59;5235315;27;20093;-87
2023/02/08 00:42:06;;;;;;;42.30;14.90;;;;;;;-1.78;59.07;102087.28;5217599;27;20307;-90
2023/02/08 00:44:31;;;;;;;33.97;13.62;;;;;;;-1.72;59.08;102092.72;5200292;27;20109;-89
2023/02/08 00:46:57;;;;;;;37.80;13.52;;;;;;;-1.65;59.08;102088.88;5217374;27;20058;-89
2023/02/08 00:49:22;;;;;;;33.17;12.88;;;;;;;-1.63;59.07;102093.25;5198605;27;20072;-89
2023/02/08 00:51:48;;;;;;;33.53;13.68;;;;;;;-1.77;59.07;102103.50;5217348;27;20064;-88
2023/02/08 00:54:15;;;;;;;30.55;13.45;;;;;;;-1.59;59.08;102104.50;5198480;27;20049;-88
2023/02/08 00:56:41;;;;;;;26.90;12.37;;;;;;;-1.43;59.09;102108.75;5214270;27;20863;-90
2023/02/08 00:59:06;;;;;;;24.37;11.60;;;;;;;-1.52;59.09;102101.47;5217411;27;20475;-89
2023/02/08 01:01:32;;;;;;;28.55;12.13;;;;;;;-1.31;59.09;102096.66;5198240;27;20085;-89
2023/02/08 01:03:58;;;;;;;27.27;11.18;;;;;;;-1.06;59.11;102089.47;5234187;27;20042;-89
2023/02/08 01:06:24;;;;;;;33.28;12.30;;;;;;;-1.17;59.10;102099.97;5215286;27;20101;-89
2023/02/08 01:08:49;;;;;;;30.92;12.18;;;;;;;-1.06;59.11;102092.03;5234157;27;20104;-89
2023/02/08 01:11:17;;;;;;;24.65;10.57;;;;;;;-0.94;59.11;102091.81;5215962;27;20095;-88
2023/02/08 01:13:43;;;;;;;23.70;10.13;;;;;;;-0.90;59.12;102088.63;5216046;27;20033;-89
2023/02/08 01:16:19;;;;;;;23.95;10.43;;;;;;;-0.85;59.12;102087.16;5235327;27;20335;-89
2023/02/08 01:18:47;;;;;;;23.50;10.65;;;;;;;-0.64;59.14;102080.59;5216905;27;20121;-87
2023/02/08 01:21:14;;;;;;;26.55;11.07;;;;;;;-0.73;59.12;102079.22;5234623;27;20049;-88
2023/02/08 01:23:39;;;;;;;34.10;13.27;;;;;;;-0.75;59.13;102079.16;5216444;27;20101;-88
2023/02/08 01:26:05;;;;;;;40.58;16.15;;;;;;;-0.74;59.12;102080.03;5234123;27;20098;-91
2023/02/08 01:28:31;;;;;;;44.97;16.92;;;;;;;-0.54;59.14;102079.34;5234003;27;20129;-88
2023/02/08 01:30:56;;;;;;;43.55;20.70;;;;;;;-0.78;59.13;102075.56;5214644;27;20396;-88
2023/02/08 01:33:22;;;;;;;51.97;20.05;;;;;;;-0.75;59.13;102078.28;5216222;27;20062;-88
2023/02/08 01:35:51;;;;;;;48.13;18.60;;;;;;;-0.68;59.13;102073.56;5216205;27;20110;-86
2023/02/08 01:38:17;;;;;;;44.88;17.23;;;;;;;-0.77;59.13;102078.19;5233992;27;20062;-87
2023/02/08 01:40:42;;;;;;;47.55;17.75;;;;;;;-0.63;59.14;102092.56;5216153;27;20388;-89
2023/02/08 01:43:28;;;;;;;48.85;19.77;;;;;;;-0.60;59.13;102088.41;5215710;27;20086;-88
2023/02/08 01:45:54;;;;;;;48.75;17.95;;;;;;;-0.60;59.13;102094.41;5198737;27;20066;-88
2023/02/08 01:48:24;;;;;;;39.15;16.15;;;;;;;-0.72;59.12;102091.22;5181411;27;20423;-88
2023/02/08 01:51:00;;;;;;;32.67;14.38;;;;;;;-0.67;59.13;102089.78;5235528;27;86060;-87
2023/02/08 01:53:25;;;;;;;37.58;14.10;;;;;;;-0.91;59.12;102094.53;5239420;27;20121;-88
2023/02/08 01:55:53;;;;;;;35.33;13.88;;;;;;;-0.76;59.13;102087.63;5237308;27;20151;-88
2023/02/08 01:58:18;;;;;;;30.10;13.27;;;;;;;-0.70;59.13;102085.41;5201897;27;20049;-88
2023/02/08 02:00:44;;;;;;;32.83;14.15;;;;;;;-0.56;59.14;102085.19;5237015;27;20096;-88
2023/02/08 02:03:10;;;;;;;31.73;12.65;;;;;;;-0.46;59.14;102087.44;5201598;27;20043;-88
2023/02/08 02:05:40;;;;;;;28.52;12.55;;;;;;;-0.39;59.15;102080.13;5255151;27;20092;-88
2023/02/08 02:08:06;;;;;;;26.58;11.50;;;;;;;-0.26;59.16;102078.16;5184037;27;20073;-90
2023/02/08 02:10:34;;;;;;;25.67;11.75;;;;;;;-0.25;59.16;102082.47;5235684;27;20081;-88
2023/02/08 02:13:25;;;;;;;26.05;10.77;;;;;;;-0.20;59.16;102076.81;5220465;27;20038;-89
2023/02/08 02:15:51;;;;;;;22.08;9.85;;;;;;;-0.08;59.16;102084.19;5216096;27;20083;-89
2023/02/08 02:18:28;;;;;;;29.52;11.70;;;;;;;0.05;59.17;102075.41;5235948;27;20413;-89
2023/02/08 02:20:59;;;;;;;27.83;11.68;;;;;;;-0.22;59.15;102086.09;5201035;27;20066;-87
2023/02/08 02:24:02;;;;;;;25.98;10.25;;;;;;;0.02;59.18;102080.41;5218183;27;20101;-89
2023/02/08 02:26:40;;;;;;;29.95;11.25;;;;;;;0.19;59.18;102079.50;5237189;27;20072;-88
2023/02/08 02:29:24;;;;;;;31.95;11.82;;;;;;;0.15;59.18;102067.34;5218198;27;20065;-89
2023/02/08 02:32:40;;;;;;;35.30;13.55;;;;;;;0.13;59.18;102072.41;5200959;27;20098;-89
2023/02/08 02:35:31;;;;;;;35.50;14.60;;;;;;;0.06;59.17;102072.94;5205985;27;20404;-89
2023/02/08 02:38:18;;;;;;;36.90;14.18;;;;;;;0.09;59.17;102069.63;5218495;27;20050;-89
2023/02/08 02:41:12;;;;;;;34.78;13.70;;;;;;;0.30;59.18;102068.09;5218535;27;20057;-88
2023/02/08 02:43:41;;;;;;;29.05;10.05;;;;;;;0.23;59.19;102069.47;5221022;27;20117;-89
2023/02/08 02:46:06;;;;;;;26.60;11.00;;;;;;;0.21;59.18;102065.06;5235913;27;20072;-89
2023/02/08 02:48:41;;;;;;;23.95;10.43;;;;;;;0.11;59.18;102066.34;5237077;27;20312;-89
2023/02/08 02:51:17;;;;;;;29.08;11.95;;;;;;;0.23;59.19;102076.28;5219119;27;20061;-89
2023/02/08 02:53:53;;;;;;;24.65;10.35;;;;;;;0.21;59.18;102077.87;5200295;27;20100;-88
2023/02/08 02:56:22;;;;;;;23.35;10.52;;;;;;;0.24;59.19;102088.31;5200526;27;20663;-88
2023/02/08 02:58:47;;;;;;;20.52;7.60;;;;;;;0.39;59.20;102086.44;5236073;27;20070;-89
2023/02/08 03:01:12;;;;;;;24.25;7.37;;;;;;;0.24;59.19;102090.87;5235984;27;20077;-88
2023/02/08 03:03:39;;;;;;;16.58;7.35;;;;;;;0.23;59.19;102096.75;5235942;27;20064;-89
2023/02/08 03:06:13;;;;;;;17.92;7.25;;;;;;;0.50;59.20;102086.94;5218527;27;20065;-90
2023/02/08 03:08:57;;;;;;;15.52;6.85;;;;;;;0.36;59.19;102095.66;5201036;27;20057;-89
2023/02/08 03:11:30;;;;;;;14.95;6.03;;;;;;;0.48;59.20;102102.25;5237477;27;20699;-89
2023/02/08 03:14:04;;;;;;;17.17;6.70;;;;;;;0.75;59.22;102106.88;5218682;27;20199;-88
2023/02/08 03:16:52;;;;;;;14.38;5.85;;;;;;;0.82;59.22;102096.97;5217876;27;20061;-89
2023/02/08 03:19:30;;;;;;;13.95;6.07;;;;;;;0.85;59.22;102096.22;5217878;27;20069;-88
2023/02/08 03:22:09;;;;;;;13.57;6.22;;;;;;;0.98;59.23;102098.53;5235484;27;20029;-89
2023/02/08 03:24:55;;;;;;;15.13;6.37;;;;;;;0.92;59.22;102101.69;5218419;27;20042;-88
2023/02/08 03:27:31;;;;;;;12.85;5.65;;;;;;;1.09;59.23;102110.12;5217753;27;20049;-88
2023/02/08 03:30:14;;;;;;;15.40;6.65;;;;;;;1.10;59.23;102109.31;5237839;27;20121;-88
2023/02/08 03:33:07;;;;;;;21.02;6.37;;;;;;;1.29;59.25;102113.56;5217944;27;20078;-88
2023/02/08 03:35:47;;;;;;;14.75;6.82;;;;;;;0.98;59.23;102113.94;5218413;27;20816;-89
2023/02/08 03:38:41;;;;;;;16.02;6.70;;;;;;;1.02;59.23;102109.81;5202787;27;20042;-88
2023/02/08 03:41:09;;;;;;;15.90;6.53;;;;;;;1.37;59.25;102099.38;5239941;27;20057;-89
2023/02/08 03:43:40;;;;;;;16.35;6.93;;;;;;;1.20;59.24;102110.63;5217914;27;20134;-89
2023/02/08 03:46:37;;;;;;;14.80;7.60;;;;;;;0.97;59.23;102111.28;5218193;27;20068;-88
2023/02/08 03:49:30;;;;;;;13.70;6.90;;;;;;;1.06;59.23;102119.38;5240727;27;20072;-87
2023/02/08 03:51:57;;;;;;;12.85;6.20;;;;;;;1.31;59.24;102122.22;5213705;27;20037;-88
2023/02/08 03:54:24;;;;;;;19.15;7.62;;;;;;;1.17;59.24;102130.97;5200725;27;20070;-88
2023/02/08 03:57:11;;;;;;;18.50;7.00;;;;;;;1.07;59.23;102128.84;5236014;27;20152;-87
2023/02/08 03:59:39;;;;;;;16.70;6.68;;;;;;;1.01;59.23;102132.00;5237204;27;20090;-88
2023/02/08 04:02:06;;;;;;;16.52;6.95;;;;;;;1.30;59.25;102127.28;5253575;27;20022;-88
2023/02/08 04:04:34;;;;;;;17.45;6.93;;;;;;;1.54;59.26;102113.81;5218003;27;20441;-88
2023/02/08 04:06:59;;;;;;;12.80;5.65;;;;;;;1.47;59.25;102118.63;5235559;27;20109;-88
2023/02/08 04:09:25;;;;;;;15.98;6.40;;;;;;;1.40;59.25;102114.03;5235355;27;20121;-89
2023/02/08 04:11:50;;;;;;;17.58;7.35;;;;;;;1.26;59.24;102126.28;5235693;27;20095;-88
2023/02/08 04:14:17;;;;;;;16.08;7.40;;;;;;;1.42;59.26;102120.09;5236076;27;20113;-89
2023/02/08 04:16:42;;;;;;;17.33;6.82;;;;;;;1.69;59.27;102122.97;5237398;27;20069;-88
2023/02/08 04:19:10;;;;;;;19.05;6.90;;;;;;;1.47;59.25;102116.94;5235703;27;20058;-89
2023/02/08 04:21:35;;;;;;;17.33;7.75;;;;;;;1.36;59.25;102123.28;5237480;27;20120;-88
2023/02/08 04:24:01;;;;;;;15.35;6.82;;;;;;;1.43;59.26;102116.75;5203679;27;20114;-87
2023/02/08 04:26:29;;;;;;;21.10;6.35;;;;;;;1.46;59.25;102122.88;5217509;27;20328;-85
2023/02/08 04:28:55;;;;;;;16.00;5.93;;;;;;;1.38;59.25;102119.09;5236198;27;20046;-88
2023/02/08 04:31:20;;;;;;;11.68;5.20;;;;;;;1.69;59.27;102133.25;5217494;27;20375;-87
2023/02/08 04:33:45;;;;;;;15.38;5.82;;;;;;;1.66;59.27;102126.31;5235238;27;20074;-88
2023/02/08 04:36:11;;;;;;;14.23;5.53;;;;;;;1.61;59.26;102125.22;5234765;27;23644;-88
2023/02/08 04:38:36;;;;;;;12.40;6.03;;;;;;;1.53;59.25;102112.06;5217481;27;20068;-89
2023/02/08 04:41:02;;;;;;;13.30;5.55;;;;;;;1.63;59.27;102110.75;5235529;27;20054;-88
2023/02/08 04:43:28;;;;;;;12.70;5.60;;;;;;;1.82;59.27;102109.81;5217403;27;20093;-89
2023/02/08 04:45:53;;;;;;;14.82;5.12;;;;;;;1.66;59.26;102113.47;5219874;27;20419;-88
2023/02/08 04:48:19;;;;;;;16.12;5.87;;;;;;;1.61;59.26;102114.06;5217191;27;20101;-87
2023/02/08 04:50:44;;;;;;;42.25;15.60;;;;;;;1.71;59.27;102118.78;5217473;27;20108;-89
2023/02/08 04:53:12;;;;;;;15.68;7.25;;;;;;;1.60;59.26;102113.19;5237486;27;20114;-90
2023/02/08 04:55:37;;;;;;;16.92;6.37;;;;;;;1.65;59.27;102119.38;5218032;27;20125;-90
2023/02/08 04:58:03;;;;;;;13.02;5.60;;;;;;;1.84;59.28;102114.22;5235677;27;20090;-90
2023/02/08 05:00:28;;;;;;;14.15;6.53;;;;;;;1.73;59.27;102114.59;5217750;27;20395;-90
2023/02/08 05:02:54;;;;;;;14.57;5.97;;;;;;;1.83;59.27;102116.72;5235841;27;20081;-89
2023/02/08 05:05:19;;;;;;;13.35;5.68;;;;;;;1.68;59.27;102111.84;5200764;27;20065;-89
2023/02/08 05:07:46;;;;;;;15.98;6.97;;;;;;;1.92;59.29;102111.97;5218102;27;20086;-89
2023/02/08 05:10:12;;;;;;;16.52;6.32;;;;;;;1.90;59.28;102115.28;5219621;27;20712;-89
2023/02/08 05:12:39;;;;;;;15.55;6.97;;;;;;;1.67;59.27;102117.78;5253360;27;20077;-89
2023/02/08 05:15:04;;;;;;;13.82;5.93;;;;;;;1.65;59.27;102121.06;5235777;27;20050;-89
2023/02/08 05:17:30;;;;;;;14.35;5.65;;;;;;;1.87;59.28;102125.41;5217778;27;20046;-90
2023/02/08 05:19:55;;;;;;;14.15;5.90;;;;;;;1.97;59.28;102128.44;5218012;27;20419;-90
2023/02/08 05:22:21;;;;;;;14.05;5.32;;;;;;;1.91;59.28;102135.03;5235237;27;20459;-89
2023/02/08 05:24:46;;;;;;;11.18;5.07;;;;;;;1.95;59.28;102134.34;5217812;27;20440;-89
2023/02/08 05:27:12;;;;;;;12.85;5.50;;;;;;;1.94;59.28;102136.03;5217514;27;21185;-85
2023/02/08 05:29:38;;;;;;;10.25;4.65;;;;;;;2.11;59.29;102135.00;5217937;27;20066;-91
2023/02/08 05:32:03;;;;;;;13.40;5.18;;;;;;;1.86;59.28;102145.09;5217611;27;20125;-90
2023/02/08 05:34:29;;;;;;;10.35;4.97;;;;;;;2.04;59.28;102142.41;5217936;27;20068;-91
2023/02/08 05:36:54;;;;;;;9.90;4.53;;;;;;;2.04;59.28;102135.56;5235180;27;20130;-91
2023/02/08 05:39:20;;;;;;;11.45;4.60;;;;;;;2.15;59.30;102139.47;5217565;27;20193;-89
2023/02/08 05:41:46;;;;;;;9.98;4.62;;;;;;;2.22;59.30;102140.59;5235265;27;20030;-89
2023/02/08 05:44:11;;;;;;;11.82;5.05;;;;;;;2.17;59.30;102134.41;5235929;27;20134;-90
2023/02/08 05:46:36;;;;;;;13.27;4.72;;;;;;;2.03;59.29;102133.81;5236469;27;20066;-90
2023/02/08 05:49:02;;;;;;;10.05;4.20;;;;;;;1.92;59.29;102141.91;5236285;27;20085;-88
2023/02/08 05:51:29;;;;;;;13.10;4.55;;;;;;;2.07;59.30;102142.53;5236540;27;20703;-90
2023/02/08 05:53:54;;;;;;;11.18;4.43;;;;;;;2.33;59.30;102139.31;5254470;27;20073;-90
2023/02/08 05:56:20;;;;;;;9.23;4.25;;;;;;;2.20;59.30;102146.47;5218879;27;20102;-89
2023/02/08 05:58:46;;;;;;;9.38;4.93;;;;;;;2.30;59.30;102135.75;5236375;27;20360;-90
2023/02/08 06:01:12;;;;;;;8.85;4.00;;;;;;;1.95;59.28;102139.47;5237882;27;20033;-90
2023/02/08 06:03:38;;;;;;;9.10;4.03;;;;;;;1.89;59.28;102129.78;5236503;27;20089;-90
2023/02/08 06:06:05;;;;;;;11.27;5.00;;;;;;;1.85;59.28;102138.19;5236847;27;20115;-90
2023/02/08 06:08:30;;;;;;;9.65;4.55;;;;;;;1.70;59.27;102142.72;5237825;27;20058;-90
2023/02/08 06:10:56;;;;;;;15.73;5.37;;;;;;;1.61;59.26;102150.88;5218884;27;20117;-90
2023/02/08 06:13:21;;;;;;;12.70;5.85;;;;;;;1.49;59.26;102164.06;5218241;27;20062;-90
2023/02/08 06:15:47;;;;;;;11.60;5.15;;;;;;;1.62;59.26;102159.47;5236475;27;20042;-90
2023/02/08 06:18:13;;;;;;;14.57;5.57;;;;;;;1.64;59.27;102170.66;5236049;27;20079;-91
2023/02/08 06:20:40;;;;;;;21.08;8.50;;;;;;;1.61;59.26;102173.09;5237022;27;20084;-91
2023/02/08 06:23:05;;;;;;;20.75;7.65;;;;;;;1.45;59.25;102180.16;5218841;27;20051;-90
2023/02/08 06:25:30;;;;;;;18.10;7.47;;;;;;;1.41;59.26;102174.81;5218641;27;20105;-91
2023/02/08 06:27:56;;;;;;;14.77;6.65;;;;;;;1.60;59.26;102173.91;5235384;27;20145;-91
2023/02/08 06:30:22;;;;;;;19.25;7.00;;;;;;;1.66;59.27;102181.91;5254402;27;20093;-91
2023/02/08 06:32:48;;;;;;;15.52;6.35;;;;;;;1.55;59.26;102176.28;5254232;27;20051;-91
2023/02/08 06:35:14;;;;;;;14.43;5.70;;;;;;;1.62;59.26;102174.84;5237592;27;20022;-90
2023/02/08 06:37:40;;;;;;;12.98;5.87;;;;;;;1.60;59.26;102176.47;5254082;27;20096;-89
2023/02/08 06:40:06;;;;;;;14.38;5.50;;;;;;;1.41;59.25;102175.69;5253730;27;20104;-91
2023/02/08 06:42:32;;;;;;;12.52;6.43;;;;;;;1.44;59.25;102178.41;5218522;27;20054;-89
2023/02/08 06:44:58;;;;;;;14.15;5.47;;;;;;;1.44;59.25;102180.97;5235703;27;20105;-90
2023/02/08 06:47:24;;;;;;;16.73;6.35;;;;;;;1.42;59.26;102190.28;5218263;27;20060;-90
2023/02/08 06:49:49;;;;;;;13.23;6.37;;;;;;;1.52;59.26;102179.59;5236526;27;20073;-90
2023/02/08 06:52:15;;;;;;;14.45;5.75;;;;;;;1.54;59.26;102185.69;5218361;27;20097;-89
2023/02/08 06:54:41;;;;;;;16.33;6.00;;;;;;;1.62;59.26;102187.69;5235783;27;20336;-90
2023/02/08 06:57:07;;;;;;;14.90;6.03;;;;;;;1.57;59.26;102189.19;5236392;27;20120;-89
2023/02/08 06:59:33;;;;;;;17.23;6.40;;;;;;;1.56;59.27;102192.56;5235881;27;20050;-90
2023/02/08 07:01:58;;;;;;;16.10;7.03;;;;;;;1.71;59.27;102195.81;5218545;27;20064;-90
2023/02/08 07:04:24;;;;;;;23.10;9.27;;;;;;;1.73;59.27;102195.06;5218755;27;20094;-90
2023/02/08 07:06:50;;;;;;;25.35;8.85;;;;;;;1.69;59.26;102195.75;5254379;27;20054;-90
2023/02/08 07:09:16;;;;;;;24.00;9.05;;;;;;;1.81;59.27;102200.50;5218335;27;20105;-90
2023/02/08 07:11:41;;;;;;;31.73;10.48;;;;;;;1.83;59.27;102204.03;5236256;27;20051;-90
2023/02/08 07:14:09;;;;;;;22.48;9.50;;;;;;;1.99;59.29;102192.72;5218659;27;20045;-91
2023/02/08 07:16:34;;;;;;;20.77;7.93;;;;;;;1.88;59.28;102204.22;5219006;27;20095;-91
2023/02/08 07:19:00;;;;;;;21.80;8.15;;;;;;;2.14;59.30;102201.94;5218485;27;20539;-90
2023/02/08 07:21:26;;;;;;;19.33;7.00;;;;;;;2.27;59.30;102203.31;5236994;27;20132;-90
2023/02/08 07:23:52;;;;;;;13.18;6.53;;;;;;;2.38;59.31;102202.06;5227207;27;20042;-90
2023/02/08 07:26:17;;;;;;;12.43;5.60;;;;;;;2.56;59.32;102201.03;5267421;27;20403;-88
2023/02/08 07:28:43;;;;;;;14.52;5.82;;;;;;;2.63;59.32;102208.19;5228007;27;20089;-91
2023/02/08 07:31:10;;;;;;;17.48;6.70;;;;;;;2.80;59.34;102207.13;5236675;27;20448;-90
2023/02/08 07:33:37;;;;;;;13.25;5.95;;;;;;;2.98;59.34;102218.16;5219320;27;20057;-91
2023/02/08 07:36:04;;;;;;;13.80;5.72;;;;;;;3.17;59.34;102216.28;5218658;27;20152;-90
2023/02/08 07:38:30;;;;;;;11.40;5.00;;;;;;;3.15;59.35;102218.78;5218499;27;20026;-91
2023/02/08 07:41:00;;;;;;;13.68;4.85;;;;;;;3.35;59.37;102222.12;5218859;27;20054;-90
2023/02/08 07:43:26;;;;;;;12.48;4.95;;;;;;;3.30;59.35;102221.91;5236484;27;20057;-91
2023/02/08 07:45:51;;;;;;;9.27;4.28;;;;;;;3.44;59.37;102217.28;5218526;27;20066;-90
2023/02/08 07:48:17;;;;;;;10.85;5.35;;;;;;;3.41;59.37;102224.91;5236173;27;20443;-91
2023/02/08 07:50:42;;;;;;;11.18;4.40;;;;;;;3.44;59.37;102227.59;5218383;27;20102;-88
2023/02/08 07:53:08;;;;;;;10.23;4.72;;;;;;;3.45;59.37;102225.88;5236102;27;20102;-90
2023/02/08 07:55:35;;;;;;;11.07;4.57;;;;;;;3.30;59.36;102229.63;5254230;27;20116;-90
2023/02/08 07:58:01;;;;;;;13.23;5.10;;;;;;;3.38;59.36;102222.22;5239525;27;20022;-90
2023/02/08 08:00:26;;;;;;;11.65;5.32;;;;;;;3.28;59.36;102231.28;5237425;27;20406;-89
2023/02/08 08:02:53;;;;;;;10.55;4.75;;;;;;;3.40;59.37;102236.03;5218609;27;20090;-89
2023/02/08 08:05:18;;;;;;;10.35;4.68;;;;;;;3.43;59.37;102236.13;5218884;27;20062;-88
2023/02/08 08:07:43;;;;;;;10.80;4.37;;;;;;;3.55;59.38;102238.25;5217786;27;20339;-89
2023/02/08 08:10:09;;;;;;;12.43;4.90;;;;;;;3.42;59.36;102249.81;5217831;27;22348;-90
2023/02/08 08:12:34;;;;;;;11.35;5.30;;;;;;;3.41;59.37;102244.63;5218271;27;20077;-90
2023/02/08 08:15:00;;;;;;;7.65;3.85;;;;;;;3.64;59.38;102246.34;5218178;27;20058;-90
2023/02/08 08:17:25;;;;;;;14.35;5.95;;;;;;;3.55;59.38;102244.31;5217808;27;20082;-89
2023/02/08 08:19:51;;;;;;;13.62;5.40;;;;;;;3.46;59.38;102253.37;5217796;27;20054;-87
2023/02/08 08:22:16;;;;;;;11.50;5.50;;;;;;;3.30;59.36;102245.09;5217806;27;20502;-93
2023/02/08 08:24:42;;;;;;;8.68;4.37;;;;;;;3.33;59.37;102258.09;5235790;27;20062;-88
2023/02/08 08:27:08;;;;;;;12.10;5.22;;;;;;;3.44;59.37;102247.31;5218215;27;20081;-89
2023/02/08 08:29:34;;;;;;;13.98;5.60;;;;;;;3.50;59.37;102253.56;5235339;27;20123;-90
2023/02/08 08:32:03;;;;;;;9.80;4.68;;;;;;;3.50;59.37;102255.25;5253395;27;20118;-90
2023/02/08 08:34:28;;;;;;;10.75;4.60;;;;;;;3.55;59.37;102251.13;5237284;27;20053;-89
2023/02/08 08:36:57;;;;;;;10.95;4.70;;;;;;;3.79;59.39;102256.34;5234271;27;20122;-90
2023/02/08 08:39:23;;;;;;;13.17;5.47;;;;;;;3.76;59.38;102258.75;5218386;27;20046;-90
2023/02/08 08:41:49;;;;;;;12.18;5.60;;;;;;;3.76;59.38;102256.19;5218107;27;20042;-89
2023/02/08 08:44:16;;;;;;;11.48;5.15;;;;;;;3.82;59.39;102259.00;5218187;27;20122;-90
2023/02/08 08:46:42;;;;;;;10.57;5.18;;;;;;;3.77;59.39;102265.66;5236125;27;20062;-88
2023/02/08 08:49:08;;;;;;;13.00;5.50;;;;;;;3.70;59.39;102255.16;5236694;27;20060;-86
2023/02/08 08:51:34;;;;;;;15.20;5.85;;;;;;;3.72;59.39;102252.62;5235600;27;20050;-86
2023/02/08 08:54:04;;;;;;;10.65;4.82;;;;;;;3.94;59.40;102254.28;5218245;27;20110;-88
2023/02/08 08:56:29;;;;;;;15.25;5.75;;;;;;;3.97;59.41;102252.69;5237192;27;20057;-90
2023/02/08 08:58:55;;;;;;;15.40;6.18;;;;;;;3.85;59.40;102264.28;5235450;27;20061;-88
2023/02/08 09:01:21;;;;;;;14.85;5.97;;;;;;;3.98;59.41;102262.16;5217871;27;20124;-88
2023/02/08 09:03:46;;;;;;;13.20;5.97;;;;;;;3.93;59.40;102263.69;5235232;27;20431;-87
2023/02/08 09:06:12;;;;;;;17.73;5.82;;;;;;;4.13;59.42;102254.09;5216998;27;20113;-87
2023/02/08 09:08:37;;;;;;;14.87;5.90;;;;;;;4.24;59.42;102262.19;5235261;27;20058;-87
2023/02/08 09:11:04;;;;;;;21.42;6.40;;;;;;;4.03;59.40;102274.34;5239797;27;20078;-87
2023/02/08 09:13:30;;;;;;;12.70;5.95;;;;;;;3.87;59.39;102278.06;5243714;27;20070;-88
2023/02/08 09:15:55;;;;;;;13.30;6.37;;;;;;;3.91;59.40;102278.22;5218595;27;20490;-89
2023/02/08 09:18:21;;;;;;;17.05;6.50;;;;;;;3.78;59.39;102283.75;5217216;27;20106;-89
2023/02/08 09:20:46;;;;;;;14.57;6.00;;;;;;;4.00;59.40;102287.97;5218280;27;20046;-89
2023/02/08 09:23:13;;;;;;;16.05;6.18;;;;;;;4.14;59.41;102297.09;5253936;27;20074;-87
2023/02/08 09:25:38;;;;;;;14.25;5.90;;;;;;;4.15;59.41;102293.69;5218259;27;20055;-88
2023/02/08 09:28:06;;;;;;;12.30;5.82;;;;;;;4.19;59.41;102292.97;5235103;27;20046;-87
2023/02/08 09:30:31;;;;;;;15.85;6.15;;;;;;;4.09;59.40;102293.47;5235181;27;20441;-90
2023/02/08 09:32:57;;;;;;;12.02;6.18;;;;;;;4.04;59.40;102299.31;5200233;27;20055;-88
2023/02/08 09:35:23;;;;;;;13.57;7.07;;;;;;;4.07;59.40;102295.13;5218278;27;20074;-88
2023/02/08 09:37:53;;;;;;;12.32;5.47;;;;;;;4.16;59.41;102295.44;5217307;27;20378;-88
2023/02/08 09:40:23;;;;;;;11.70;4.90;;;;;;;4.33;59.42;102290.87;5219072;27;20060;-88
2023/02/08 09:43:03;;;;;;;;;;;;;;;4.36;59.42;102297.81;5236572;27;20027;-88
2023/02/08 09:45:35;;;;;;;9.60;4.57;;;;;;;4.31;59.42;102295.09;5218673;27;20319;-88
2023/02/08 09:48:07;;;;;;;11.23;4.43;;;;;;;4.54;59.43;102294.16;5218601;27;20037;-89
2023/02/08 09:50:38;;;;;;;7.53;3.60;;;;;;;4.45;59.42;102293.84;5218223;27;20077;-89
2023/02/08 09:53:09;;;;;;;13.35;5.35;;;;;;;4.63;59.44;102303.91;5235889;27;20081;-87
2023/02/08 09:55:49;;;;;;;11.55;5.15;;;;;;;4.77;59.44;102283.72;5218837;27;20066;-86
2023/02/08 09:58:36;;;;;;;9.68;4.43;;;;;;;4.89;59.45;102294.44;5235840;27;20081;-88
2023/02/08 10:01:06;;;;;;;10.15;4.65;;;;;;;4.95;59.46;102284.28;5250608;27;20141;-87
2023/02/08 10:03:40;;;;;;;9.88;4.72;;;;;;;4.83;59.45;102295.13;5218934;27;20072;-87
2023/02/08 10:06:07;;;;;;;11.90;5.03;;;;;;;4.80;59.45;102284.69;5235658;27;20113;-88
2023/02/08 10:08:33;;;;;;;12.32;5.20;;;;;;;5.04;59.46;102287.19;5218025;27;20103;-89
2023/02/08 10:11:22;;;;;;;12.27;4.82;;;;;;;4.98;59.46;102289.56;5218550;27;20062;-87
2023/02/08 10:14:12;;;;;;;8.57;4.25;;;;;;;5.26;59.47;102287.84;5218777;27;20165;-89
2023/02/08 10:17:00;;;;;;;8.82;4.95;;;;;;;5.36;59.48;102287.28;5237760;27;20062;-88
2023/02/08 10:19:41;;;;;;;11.88;5.85;;;;;;;5.31;59.48;102287.13;5200588;27;20045;-89
2023/02/08 10:22:25;;;;;;;10.93;4.95;;;;;;;5.56;59.49;102280.97;5218402;27;20092;-89
2023/02/08 10:25:22;;;;;;;10.27;4.70;;;;;;;5.61;59.49;102288.84;5218137;27;20054;-90
2023/02/08 10:28:06;;;;;;;6.93;4.05;;;;;;;5.45;59.48;102293.59;5218487;27;20869;-89
2023/02/08 10:31:00;;;;;;;14.68;5.60;;;;;;;5.44;59.48;102286.69;5236586;27;20076;-90
2023/02/08 10:33:35;;;;;;;8.80;4.72;;;;;;;5.37;59.48;102295.06;5217349;27;20050;-89
2023/02/08 10:36:05;;;;;;;13.60;4.85;;;;;;;5.41;59.48;102296.03;5219742;27;20058;-90
2023/02/08 10:38:31;;;;;;;11.55;5.15;;;;;;;5.41;59.48;102289.16;5235665;27;20451;-88
2023/02/08 10:41:01;;;;;;;11.52;4.93;;;;;;;5.64;59.49;102276.03;5235728;27;20050;-89
2023/02/08 10:43:35;;;;;;;11.77;6.35;;;;;;;5.78;59.51;102274.72;5218312;27;20076;-88
2023/02/08 10:46:07;;;;;;;11.57;5.85;;;;;;;5.69;59.50;102277.94;5218125;27;20388;-89
2023/02/08 10:48:42;;;;;;;12.32;4.93;;;;;;;5.66;59.49;102276.94;5218287;27;20065;-91
2023/02/08 10:51:14;;;;;;;12.20;5.93;;;;;;;5.64;59.50;102288.94;5218574;27;20050;-89
2023/02/08 10:53:40;;;;;;;13.00;6.00;;;;;;;5.75;59.50;102277.22;5236368;27;20065;-89
2023/02/08 10:56:05;;;;;;;13.77;5.37;;;;;;;6.04;59.52;102270.28;5235476;27;20074;-90
2023/02/08 10:58:31;;;;;;;13.23;5.90;;;;;;;6.08;59.52;102275.56;5218111;27;20408;-91
2023/02/08 11:00:57;;;;;;;13.18;5.97;;;;;;;5.97;59.51;102276.12;5235973;27;20878;-90
2023/02/08 11:03:27;;;;;;;14.10;6.35;;;;;;;6.15;59.53;102269.75;5236046;27;20101;-90
2023/02/08 11:05:54;;;;;;;12.93;5.78;;;;;;;6.40;59.54;102266.09;5235851;27;20628;-91
2023/02/08 11:08:24;;;;;;;12.82;6.03;;;;;;;6.36;59.54;102274.59;5235931;27;20080;-91
2023/02/08 11:11:02;;;;;;;10.43;5.45;;;;;;;6.13;59.52;102258.47;5201123;27;20050;-91
2023/02/08 11:13:43;;;;;;;10.27;4.93;;;;;;;6.13;59.53;102267.94;5238554;27;20065;-89
2023/02/08 11:16:20;;;;;;;12.35;6.18;;;;;;;6.25;59.53;102265.69;5217527;27;20061;-92
2023/02/08 11:18:49;;;;;;;11.23;5.40;;;;;;;6.30;59.53;102270.97;5237304;27;20089;-90
2023/02/08 11:21:24;;;;;;;16.77;9.60;;;;;;;6.34;59.53;102271.09;5235554;27;20070;-91
2023/02/08 11:23:50;;;;;;;13.18;5.93;;;;;;;6.41;59.54;102267.84;5235806;27;20121;-91
2023/02/08 11:26:38;;;;;;;11.23;6.37;;;;;;;6.44;59.54;102275.66;5218181;27;20080;-91
2023/02/08 11:29:20;;;;;;;16.35;6.62;;;;;;;6.24;59.53;102265.66;5218160;27;20030;-91
2023/02/08 11:31:55;;;;;;;15.02;6.35;;;;;;;6.59;59.55;102276.88;5218701;27;20415;-91